createdAt,value
2022-08-05T00:01:28.394Z,96295.72
2022-08-05T00:06:33.229Z,96282.84
2022-08-05T00:11:48.426Z,96304.88
2022-08-05T00:16:52.785Z,96301.66
2022-08-05T00:21:55.519Z,96294.22
2022-08-05T00:26:57.813Z,96289.03
2022-08-05T00:32:12.480Z,96279.25
2022-08-05T00:37:17.202Z,96283.38
2022-08-05T00:42:34.561Z,96289.44
2022-08-05T00:47:56.322Z,96298.53
2022-08-05T00:52:59.485Z,96299.00
2022-08-05T00:58:02.373Z,96297.25
2022-08-05T01:03:08.140Z,96288.66
2022-08-05T01:08:30.392Z,96285.72
2022-08-05T01:13:58.456Z,96296.31
2022-08-05T01:19:20.423Z,96280.66
2022-08-05T01:24:35.439Z,96286.09
2022-08-05T01:29:47.358Z,96275.13
2022-08-05T01:34:57.726Z,96290.44
2022-08-05T01:40:03.174Z,96273.00
2022-08-05T01:45:08.285Z,96285.53
2022-08-05T01:50:28.575Z,96248.16
2022-08-05T01:55:36.149Z,96279.09
2022-08-05T02:00:45.829Z,96264.22
2022-08-05T02:05:49.342Z,96277.78
2022-08-05T02:11:07.468Z,96268.72
2022-08-05T02:16:29.441Z,96279.28
2022-08-05T02:21:40.272Z,96257.44
2022-08-05T02:26:56.866Z,96270.31
2022-08-05T02:32:04.768Z,96266.53
2022-08-05T02:37:12.352Z,96263.13
2022-08-05T02:42:25.866Z,96227.66
2022-08-05T02:47:58.586Z,96268.63
2022-08-05T02:52:55.878Z,96268.94
2022-08-05T02:58:12.348Z,96270.88
2022-08-05T03:03:25.428Z,96273.69
2022-08-05T03:08:31.180Z,96264.94
2022-08-05T03:13:51.683Z,96273.81
2022-08-05T03:18:56.430Z,96266.56
2022-08-05T03:23:58.904Z,96277.91
2022-08-05T03:29:01.761Z,96276.63
2022-08-05T03:34:05.144Z,96275.25
2022-08-05T03:39:13.077Z,96269.25
2022-08-05T03:44:29.013Z,96275.25
2022-08-05T03:49:51.507Z,96285.75
2022-08-05T03:56:04.906Z,96286.69
2022-08-05T04:00:29.702Z,96293.88
2022-08-05T04:05:35.824Z,96285.84
2022-08-05T04:10:39.148Z,96279.94
2022-08-05T04:15:52.840Z,96284.88
2022-08-05T04:21:05.677Z,96293.88
2022-08-05T04:26:07.871Z,96291.81
2022-08-05T04:31:10.549Z,96276.56
2022-08-05T04:36:38.562Z,96287.78
2022-08-05T04:41:37.266Z,96276.69
2022-08-05T04:46:41.044Z,96283.94
2022-08-05T04:51:49.385Z,96277.28
2022-08-05T04:57:02.856Z,96277.97
2022-08-05T05:02:35.604Z,96256.53
2022-08-05T05:07:29.737Z,96274.59
2022-08-05T05:12:36.652Z,96267.09
2022-08-05T05:17:56.349Z,96262.16
2022-08-05T05:23:06.933Z,96241.38
2022-08-05T05:28:21.096Z,96209.47
2022-08-05T05:33:23.731Z,96238.94
2022-08-05T05:38:27.516Z,96237.38
2022-08-05T05:43:58.117Z,96237.81
2022-08-05T05:48:52.193Z,96248.66
2022-08-05T05:53:59.557Z,96236.41
2022-08-05T05:59:08.308Z,96234.00
2022-08-05T06:04:14.449Z,96236.84
2022-08-05T06:09:25.774Z,96243.72
2022-08-05T06:14:40.176Z,96236.56
2022-08-05T06:19:56.523Z,96232.44
2022-08-05T06:25:25.179Z,96205.63
2022-08-05T06:30:28.096Z,96210.56
2022-08-05T06:36:07.297Z,96190.44
2022-08-05T06:40:52.918Z,96212.63
2022-08-05T06:46:03.635Z,96196.88
2022-08-05T06:51:09.472Z,96210.25
2022-08-05T06:56:26.741Z,96200.91
2022-08-05T07:01:32.288Z,96209.09
2022-08-05T07:06:35.346Z,96193.34
2022-08-05T07:11:39.963Z,96203.19
2022-08-05T07:18:00.086Z,96213.63
2022-08-05T07:22:15.751Z,96197.16
2022-08-05T07:27:18.541Z,96203.47
2022-08-05T07:32:26.004Z,96205.16
2022-08-05T07:37:35.992Z,96209.28
2022-08-05T07:42:40.159Z,96178.47
2022-08-05T07:47:46.217Z,96187.84
2022-08-05T07:52:49.459Z,96195.88
2022-08-05T07:58:02.457Z,96200.28
2022-08-05T08:03:13.273Z,96206.63
2022-08-05T08:08:19.715Z,96211.72
2022-08-05T08:13:29.091Z,96201.94
2022-08-05T08:18:31.865Z,96196.47
2022-08-05T08:24:01.408Z,96187.44
2022-08-05T08:28:59.850Z,96195.34
2022-08-05T08:34:30.475Z,96191.41
2022-08-05T08:39:37.650Z,96194.69
2022-08-05T08:45:17.855Z,96170.34
2022-08-05T08:50:22.566Z,96182.09
2022-08-05T08:56:02.421Z,96176.34
2022-08-05T09:00:52.524Z,96181.34
2022-08-05T09:06:08.530Z,96162.59
2022-08-05T09:11:13.732Z,96170.13
2022-08-05T09:16:19.560Z,96149.47
2022-08-05T09:22:23.298Z,96151.72
2022-08-05T09:26:52.035Z,96109.66
2022-08-05T09:32:46.114Z,96117.78
2022-08-05T09:38:17.571Z,96126.34
2022-08-05T09:42:54.273Z,96140.78
2022-08-05T09:48:01.425Z,96124.31
2022-08-05T09:53:03.595Z,96114.53
2022-08-05T09:58:15.406Z,96120.38
2022-08-05T14:05:00.909Z,95982.97
2022-08-05T14:10:08.345Z,95968.91
2022-08-05T14:16:08.518Z,95967.81
2022-08-05T14:20:35.100Z,95962.28
2022-08-05T14:25:37.778Z,95980.16
2022-08-05T14:30:48.692Z,95956.50
2022-08-05T14:35:55.949Z,95927.03
2022-08-05T14:40:58.757Z,95942.97
2022-08-05T14:46:04.253Z,95942.53
2022-08-05T14:51:06.536Z,95947.03
2022-08-05T14:56:15.876Z,95909.50
2022-08-05T15:01:49.111Z,95918.41
2022-08-05T15:06:53.431Z,95963.25
2022-08-05T15:11:59.349Z,95957.66
2022-08-05T15:17:09.997Z,95945.69
2022-08-05T15:22:27.095Z,95934.03
2022-08-05T15:27:36.120Z,95924.03
2022-08-05T15:32:38.620Z,95931.91
2022-08-05T15:38:31.935Z,95946.19
2022-08-05T15:43:19.841Z,95929.16
2022-08-05T15:48:23.374Z,95927.78
2022-08-05T15:53:26.718Z,95924.22
2022-08-05T15:58:46.810Z,95905.88
2022-08-05T16:03:50.432Z,95904.81
2022-08-05T16:08:53.781Z,95909.88
2022-08-05T16:13:57.722Z,95919.34
2022-08-05T16:19:00.407Z,95912.72
2022-08-05T16:24:40.047Z,95941.88
2022-08-05T16:29:39.110Z,95910.91
2022-08-05T16:34:44.416Z,95908.38
2022-08-05T16:40:05.138Z,95907.38
2022-08-05T16:46:04.819Z,95943.34
2022-08-05T16:50:32.582Z,95904.22
2022-08-05T16:55:46.453Z,95931.59
2022-08-05T17:00:49.700Z,95959.28
2022-08-05T17:05:54.289Z,95955.16
2022-08-05T17:11:03.215Z,95963.91
2022-08-05T17:16:26.674Z,95943.13
2022-08-05T17:21:35.608Z,95955.69
2022-08-05T17:26:40.929Z,95939.25
2022-08-05T17:31:58.462Z,95945.69
2022-08-05T17:37:01.586Z,95952.22
2022-08-05T17:42:28.441Z,95962.53
2022-08-05T17:47:26.534Z,95970.31
2022-08-05T17:52:29.144Z,95997.94
2022-08-05T17:57:31.463Z,95989.53
2022-08-05T18:02:34.907Z,95997.13
2022-08-05T18:07:41.461Z,95979.16
2022-08-05T18:12:44.581Z,96027.25
2022-08-05T18:18:01.655Z,96022.19
2022-08-05T18:23:09.295Z,95995.31
2022-08-05T18:28:12.304Z,96044.38
2022-08-05T18:33:22.991Z,96062.91
2022-08-05T18:38:29.022Z,96057.78
2022-08-05T18:43:38.041Z,96028.13
2022-08-05T18:48:41.665Z,96048.47
2022-08-05T18:53:50.374Z,96040.06
2022-08-05T18:58:59.801Z,96059.25
2022-08-05T19:04:05.411Z,96070.28
2022-08-05T19:09:07.900Z,96069.91
2022-08-05T19:14:53.315Z,96058.19
2022-08-05T19:19:32.785Z,96045.97
2022-08-05T19:24:36.740Z,96065.25
2022-08-05T19:29:39.067Z,96049.94
2022-08-05T19:34:41.919Z,96051.94
2022-08-05T19:39:58.349Z,96073.34
2022-08-05T19:45:01.570Z,96074.28
2022-08-05T19:50:04.253Z,96071.25
2022-08-05T19:56:13.641Z,96077.06
2022-08-05T20:00:31.494Z,96038.88
2022-08-05T20:05:49.848Z,96017.78
2022-08-05T20:10:54.029Z,96054.03
2022-08-05T20:15:57.923Z,96057.09
2022-08-05T20:21:08.452Z,96071.03
2022-08-05T20:26:15.924Z,96060.84
2022-08-05T20:31:28.438Z,96066.00
2022-08-05T20:36:43.934Z,96063.66
2022-08-05T20:41:47.932Z,96060.28
2022-08-05T20:46:53.601Z,96054.09
2022-08-05T20:51:57.395Z,96036.69
2022-08-05T20:57:03.426Z,96056.94
2022-08-05T21:02:05.878Z,96041.56
2022-08-05T21:07:09.322Z,96047.69
2022-08-05T21:12:17.122Z,96015.56
2022-08-05T21:17:19.693Z,96036.75
2022-08-05T21:22:24.190Z,96064.59
2022-08-05T21:27:38.666Z,96032.34
2022-08-05T21:32:41.989Z,96044.72
2022-08-05T21:37:47.136Z,96035.31
2022-08-05T21:42:55.599Z,96031.56
2022-08-05T21:48:02.074Z,96044.44
2022-08-05T21:53:16.615Z,96038.78
2022-08-05T21:58:20.577Z,96044.16
2022-08-05T22:03:52.792Z,96020.00
2022-08-05T22:08:55.951Z,96038.56
2022-08-05T22:14:19.870Z,96049.44
2022-08-05T22:20:00.723Z,96042.91
2022-08-05T22:25:02.811Z,96023.25
2022-08-05T22:30:06.209Z,96022.50
2022-08-05T22:35:14.292Z,96037.97
2022-08-05T22:40:25.435Z,96036.34
2022-08-05T22:45:28.049Z,96009.59
2022-08-05T22:50:33.175Z,96024.38
2022-08-05T22:55:56.448Z,95999.25
2022-08-05T23:00:59.270Z,96020.72
2022-08-05T23:06:01.834Z,96012.88
2022-08-05T23:11:04.480Z,96006.72
2022-08-05T23:16:07.294Z,96003.69
2022-08-05T23:21:10.810Z,96001.72
2022-08-05T23:26:20.191Z,96007.38
2022-08-05T23:31:24.161Z,95998.69
2022-08-05T23:36:28.527Z,95989.59
2022-08-05T23:41:48.686Z,96002.53
2022-08-05T23:46:56.076Z,96002.84
2022-08-05T23:52:16.859Z,96012.41
2022-08-05T23:57:19.664Z,96002.94
